createdAt,value
2022-08-05T00:02:20.616Z,3.42
2022-08-05T00:04:46.984Z,2.50
2022-08-05T00:07:59.111Z,3.30
2022-08-05T00:10:08.527Z,3.25
2022-08-05T00:12:35.589Z,3.83
2022-08-05T00:15:55.350Z,3.08
2022-08-05T00:18:08.224Z,3.08
2022-08-05T00:20:34.527Z,3.30
2022-08-05T00:23:02.706Z,2.63
2022-08-05T00:25:45.324Z,3.55
2022-08-05T00:28:12.705Z,4.05
2022-08-05T00:30:39.085Z,4.90
2022-08-05T00:33:15.439Z,3.58
2022-08-05T00:36:15.957Z,2.40
2022-08-05T00:38:41.283Z,2.65
2022-08-05T00:41:11.775Z,2.85
2022-08-05T00:43:46.608Z,3.55
2022-08-05T00:46:13.714Z,3.30
2022-08-05T00:48:51.322Z,3.20
2022-08-05T00:51:51.140Z,3.60
2022-08-05T00:54:05.157Z,2.53
2022-08-05T00:56:31.462Z,4.13
2022-08-05T00:58:57.760Z,3.67
2022-08-05T01:01:42.526Z,4.53
2022-08-05T01:04:14.225Z,3.50
2022-08-05T01:06:46.701Z,4.18
2022-08-05T01:09:15.323Z,4.10
2022-08-05T01:11:44.286Z,3.80
2022-08-05T01:14:10.578Z,5.18
2022-08-05T01:16:49.457Z,4.00
2022-08-05T01:19:22.301Z,4.43
2022-08-05T01:22:28.041Z,4.05
2022-08-05T01:25:13.625Z,4.40
2022-08-05T01:27:50.741Z,3.80
2022-08-05T01:30:34.616Z,4.07
2022-08-05T01:33:03.080Z,5.25
2022-08-05T01:35:50.780Z,6.75
2022-08-05T01:38:27.167Z,4.68
2022-08-05T01:40:57.518Z,4.25
2022-08-05T01:43:24.336Z,4.35
2022-08-05T01:45:56.185Z,6.65
2022-08-05T01:48:23.694Z,6.28
2022-08-05T01:50:51.518Z,6.63
2022-08-05T01:53:54.588Z,7.50
2022-08-05T01:58:44.807Z,6.35
2022-08-05T02:01:13.162Z,6.72
2022-08-05T02:03:42.327Z,6.30
2022-08-05T02:06:33.881Z,7.25
2022-08-05T02:08:58.781Z,6.85
2022-08-05T02:11:33.614Z,4.70
2022-08-05T02:14:12.541Z,5.07
2022-08-05T02:16:46.356Z,6.93
2022-08-05T02:19:24.944Z,5.80
2022-08-05T02:22:25.685Z,4.65
2022-08-05T02:24:53.928Z,4.60
2022-08-05T02:27:21.813Z,5.78
2022-08-05T02:29:59.839Z,5.03
2022-08-05T02:32:31.029Z,4.32
2022-08-05T02:35:09.577Z,5.35
2022-08-05T02:37:40.794Z,5.30
2022-08-05T02:40:09.515Z,5.97
2022-08-05T02:42:37.060Z,6.18
2022-08-05T02:45:04.234Z,6.35
2022-08-05T02:48:06.958Z,6.32
2022-08-05T02:50:18.694Z,5.80
2022-08-05T02:52:45.651Z,7.57
2022-08-05T02:55:12.555Z,6.53
2022-08-05T02:58:09.833Z,6.63
2022-08-05T03:00:26.971Z,6.45
2022-08-05T03:02:53.625Z,6.35
2022-08-05T03:05:21.929Z,6.18
2022-08-05T03:08:08.831Z,6.05
2022-08-05T03:10:35.934Z,6.27
2022-08-05T03:15:27.870Z,6.97
2022-08-05T03:17:55.967Z,5.97
2022-08-05T03:20:24.523Z,5.95
2022-08-05T03:22:51.369Z,6.85
2022-08-05T03:25:33.241Z,6.55
2022-08-05T03:28:07.022Z,5.75
2022-08-05T03:30:34.934Z,5.00
2022-08-05T03:33:01.811Z,4.28
2022-08-05T03:35:28.737Z,3.35
2022-08-05T03:37:58.701Z,3.50
2022-08-05T03:40:31.813Z,3.13
2022-08-05T03:42:58.833Z,4.80
2022-08-05T03:45:25.158Z,3.35
2022-08-05T03:47:51.802Z,3.78
2022-08-05T03:50:23.401Z,3.35
2022-08-05T03:56:10.348Z,2.47
2022-08-05T03:58:41.082Z,3.47
2022-08-05T04:01:11.448Z,3.27
2022-08-05T04:03:40.220Z,4.28
2022-08-05T04:06:27.043Z,3.13
2022-08-05T04:08:54.465Z,3.30
2022-08-05T04:11:21.047Z,4.47
2022-08-05T04:13:53.398Z,4.07
2022-08-05T04:16:25.085Z,3.03
2022-08-05T04:18:58.603Z,2.97
2022-08-05T04:22:05.764Z,3.15
2022-08-05T04:24:18.672Z,4.85
2022-08-05T04:26:46.435Z,3.42
2022-08-05T04:29:13.016Z,3.67
2022-08-05T04:31:40.627Z,3.78
2022-08-05T04:34:19.697Z,3.05
2022-08-05T04:36:54.012Z,3.08
2022-08-05T04:39:20.876Z,4.03
2022-08-05T04:41:48.517Z,3.22
2022-08-05T04:44:21.362Z,3.33
2022-08-05T04:46:56.021Z,3.28
2022-08-05T04:49:24.765Z,3.92
2022-08-05T04:52:04.737Z,3.47
2022-08-05T04:54:34.018Z,4.28
2022-08-05T04:57:00.302Z,3.70
2022-08-05T04:59:36.664Z,3.90
2022-08-05T05:02:41.429Z,3.35
2022-08-05T05:04:53.277Z,4.30
2022-08-05T05:07:29.714Z,3.75
2022-08-05T05:09:59.230Z,4.53
2022-08-05T05:12:29.163Z,4.85
2022-08-05T05:14:55.456Z,4.78
2022-08-05T05:17:24.692Z,5.20
2022-08-05T05:20:08.708Z,4.45
2022-08-05T05:22:35.146Z,4.03
2022-08-05T05:25:17.151Z,4.47
2022-08-05T05:27:48.664Z,4.90
2022-08-05T05:30:31.427Z,5.20
2022-08-05T05:33:03.765Z,5.15
2022-08-05T05:35:42.777Z,4.80
2022-08-05T05:38:13.505Z,5.82
2022-08-05T05:40:43.803Z,5.28
2022-08-05T05:43:14.807Z,5.45
2022-08-05T05:45:48.573Z,4.97
2022-08-05T05:48:16.065Z,4.45
2022-08-05T05:50:44.309Z,4.53
2022-08-05T05:53:21.318Z,3.85
2022-08-05T05:55:52.413Z,4.30
2022-08-05T05:58:32.002Z,3.97
2022-08-05T06:01:04.870Z,4.60
2022-08-05T06:04:01.256Z,3.67
2022-08-05T06:06:28.091Z,3.65
2022-08-05T06:08:57.679Z,3.88
2022-08-05T06:11:23.998Z,3.83
2022-08-05T06:13:54.001Z,3.78
2022-08-05T06:16:30.123Z,3.78
2022-08-05T06:19:02.005Z,3.10
2022-08-05T06:21:37.054Z,4.40
2022-08-05T06:24:05.898Z,4.10
2022-08-05T06:26:33.915Z,3.80
2022-08-05T06:29:03.710Z,5.65
2022-08-05T06:31:33.584Z,3.97
2022-08-05T06:34:06.743Z,5.50
2022-08-05T06:36:55.286Z,5.80
2022-08-05T06:39:21.797Z,4.95
2022-08-05T06:41:49.335Z,5.07
2022-08-05T06:44:15.840Z,5.28
2022-08-05T06:46:44.105Z,5.65
2022-08-05T06:49:10.390Z,4.80
2022-08-05T06:51:40.793Z,5.57
2022-08-05T06:54:07.353Z,4.33
2022-08-05T06:56:35.234Z,6.28
2022-08-05T06:59:02.390Z,4.25
2022-08-05T07:01:32.390Z,3.58
2022-08-05T07:03:59.520Z,3.28
2022-08-05T07:06:27.621Z,2.03
2022-08-05T07:08:55.112Z,2.60
2022-08-05T07:11:22.553Z,1.67
2022-08-05T07:14:20.760Z,2.03
2022-08-05T07:18:08.338Z,2.40
2022-08-05T07:20:22.985Z,1.80
2022-08-05T07:22:33.426Z,2.38
2022-08-05T07:25:53.770Z,2.08
2022-08-05T07:27:56.461Z,2.10
2022-08-05T07:30:31.746Z,2.47
2022-08-05T07:32:59.551Z,2.38
2022-08-05T07:35:56.711Z,2.20
2022-08-05T07:38:26.241Z,3.08
2022-08-05T07:41:00.306Z,2.75
2022-08-05T07:43:31.060Z,2.22
2022-08-05T07:45:58.494Z,2.33
2022-08-05T07:49:01.471Z,2.10
2022-08-05T07:51:23.492Z,2.45
2022-08-05T07:53:58.406Z,3.85
2022-08-05T07:56:38.981Z,2.78
2022-08-05T07:59:14.460Z,3.25
2022-08-05T08:01:41.553Z,3.55
2022-08-05T08:04:24.392Z,3.42
2022-08-05T08:07:05.512Z,3.28
2022-08-05T08:09:33.604Z,2.55
2022-08-05T08:12:05.610Z,2.90
2022-08-05T08:14:37.777Z,3.25
2022-08-05T08:17:10.660Z,2.40
2022-08-05T08:20:21.496Z,3.20
2022-08-05T08:22:29.099Z,2.92
2022-08-05T08:24:55.556Z,3.53
2022-08-05T08:27:40.174Z,3.88
2022-08-05T08:30:20.295Z,3.22
2022-08-05T08:32:58.106Z,3.40
2022-08-05T08:35:29.258Z,3.78
2022-08-05T08:38:01.646Z,3.58
2022-08-05T08:40:28.063Z,3.63
2022-08-05T08:42:54.725Z,3.72
2022-08-05T08:45:27.112Z,4.00
2022-08-05T08:48:10.655Z,3.53
2022-08-05T08:51:03.284Z,3.42
2022-08-05T08:53:35.378Z,3.72
2022-08-05T08:56:05.807Z,4.03
2022-08-05T08:58:43.058Z,4.18
2022-08-05T09:01:17.114Z,3.63
2022-08-05T09:03:46.195Z,4.05
2022-08-05T09:08:45.141Z,3.28
2022-08-05T09:11:13.906Z,3.40
2022-08-05T09:14:01.199Z,2.85
2022-08-05T09:16:27.651Z,3.00
2022-08-05T09:18:55.387Z,3.33
2022-08-05T09:22:31.220Z,3.13
2022-08-05T09:24:10.164Z,2.90
2022-08-05T09:26:36.848Z,3.30
2022-08-05T09:29:05.760Z,2.85
2022-08-05T09:32:39.410Z,3.70
2022-08-05T09:34:22.410Z,3.50
2022-08-05T09:36:55.630Z,4.65
2022-08-05T09:39:41.897Z,4.43
2022-08-05T09:42:11.388Z,3.40
2022-08-05T09:44:50.801Z,3.65
2022-08-05T09:47:20.601Z,3.55
2022-08-05T09:52:29.559Z,2.58
2022-08-05T09:55:58.453Z,3.05
2022-08-05T09:57:54.389Z,3.97
2022-08-05T10:00:24.687Z,2.17
2022-08-05T10:02:54.503Z,2.88
2022-08-05T10:05:22.605Z,2.63
2022-08-05T10:08:36.481Z,2.28
2022-08-05T10:10:53.964Z,2.38
2022-08-05T10:13:45.535Z,2.75
2022-08-05T10:16:33.930Z,1.80
2022-08-05T10:19:01.184Z,2.63
2022-08-05T10:21:35.341Z,2.65
2022-08-05T10:24:10.949Z,2.67
2022-08-05T10:26:37.806Z,2.50
2022-08-05T10:29:23.646Z,2.15
2022-08-05T10:32:54.653Z,2.65
2022-08-05T10:34:51.523Z,2.25
2022-08-05T10:37:18.084Z,2.08
2022-08-05T10:40:03.639Z,2.22
2022-08-05T10:42:36.551Z,2.10
2022-08-05T10:45:20.932Z,1.83
2022-08-05T10:48:04.898Z,2.72
2022-08-05T10:50:57.040Z,2.95
2022-08-05T10:53:33.178Z,3.08
2022-08-05T10:56:25.803Z,2.25
2022-08-05T10:58:55.671Z,1.75
2022-08-05T11:01:55.145Z,2.83
2022-08-05T11:04:17.413Z,2.35
2022-08-05T11:07:06.467Z,2.58
2022-08-05T11:09:46.938Z,1.90
2022-08-05T11:12:32.155Z,2.25
2022-08-05T11:15:19.055Z,2.58
2022-08-05T11:17:57.778Z,2.28
2022-08-05T11:20:37.510Z,2.22
2022-08-05T11:23:25.333Z,2.97
2022-08-05T11:26:10.064Z,2.15
2022-08-05T11:28:36.909Z,1.70
2022-08-05T11:31:06.546Z,2.85
2022-08-05T11:33:48.387Z,2.55
2022-08-05T11:36:33.932Z,2.25
2022-08-05T11:39:00.618Z,2.50
2022-08-05T11:41:54.641Z,2.00
2022-08-05T11:44:21.507Z,2.53
2022-08-05T11:47:12.072Z,2.50
2022-08-05T11:49:43.275Z,0.30
2022-08-05T11:52:22.981Z,0.13
2022-08-05T11:54:56.602Z,0.10
2022-08-05T11:57:27.899Z,0.80
2022-08-05T11:59:57.370Z,0.30
2022-08-05T12:02:30.637Z,0.20
2022-08-05T12:05:00.157Z,0.73
2022-08-05T12:08:07.422Z,0.35
2022-08-05T12:10:14.005Z,0.90
2022-08-05T12:12:59.142Z,1.42
2022-08-05T12:15:38.185Z,2.92
2022-08-05T12:18:10.766Z,5.60
2022-08-05T12:20:38.702Z,5.18
2022-08-05T12:23:09.646Z,7.00
2022-08-05T12:25:56.923Z,8.50
2022-08-05T12:28:30.907Z,10.75
2022-08-05T12:30:57.692Z,8.65
2022-08-05T12:33:36.598Z,8.20
2022-08-05T12:36:04.250Z,8.35
2022-08-05T12:38:36.139Z,9.23
2022-08-05T12:41:03.167Z,8.10
2022-08-05T12:43:32.257Z,6.75
2022-08-05T12:45:58.724Z,6.70
2022-08-05T12:48:27.583Z,6.45
2022-08-05T12:51:08.999Z,5.57
2022-08-05T12:53:58.898Z,5.63
2022-08-05T12:56:35.419Z,4.80
2022-08-05T12:59:14.171Z,5.50
2022-08-05T13:02:07.855Z,4.43
2022-08-05T13:04:41.870Z,4.03
2022-08-05T13:07:56.113Z,3.00
2022-08-05T13:10:11.798Z,3.17
2022-08-05T13:12:42.481Z,3.33
2022-08-05T13:15:24.461Z,3.47
2022-08-05T13:18:02.010Z,3.20
2022-08-05T13:20:35.263Z,3.03
2022-08-05T13:23:07.673Z,2.47
2022-08-05T13:25:52.487Z,2.60
2022-08-05T13:28:21.842Z,1.90
2022-08-05T13:30:48.736Z,1.08
2022-08-05T13:34:21.910Z,1.57
2022-08-05T13:36:05.237Z,0.77
2022-08-05T13:38:36.039Z,1.15
2022-08-05T13:41:04.793Z,1.40
2022-08-05T13:43:44.434Z,1.35
2022-08-05T13:46:12.843Z,0.98
2022-08-05T13:48:57.792Z,0.93
2022-08-05T13:51:30.086Z,1.63
2022-08-05T13:54:12.406Z,1.38
2022-08-05T13:56:39.999Z,0.90
2022-08-05T13:59:19.958Z,1.10
2022-08-05T14:01:58.313Z,1.70
2022-08-05T14:04:50.424Z,0.85
2022-08-05T14:07:26.160Z,1.00
2022-08-05T14:10:28.074Z,1.35
2022-08-05T14:12:55.407Z,1.20
2022-08-05T14:16:05.955Z,2.05
2022-08-05T14:18:15.117Z,0.98
2022-08-05T14:20:47.198Z,2.63
2022-08-05T14:25:45.172Z,1.20
2022-08-05T14:28:15.966Z,0.68
2022-08-05T14:30:53.637Z,1.67
2022-08-05T14:33:23.050Z,1.52
2022-08-05T14:38:32.911Z,1.58
2022-08-05T14:41:01.892Z,1.52
2022-08-05T14:43:59.391Z,1.05
2022-08-05T14:46:19.115Z,0.52
2022-08-05T14:48:49.960Z,0.30
2022-08-05T14:51:16.569Z,0.40
2022-08-05T14:53:44.858Z,0.50
2022-08-05T14:56:11.542Z,0.50
2022-08-05T14:58:38.031Z,0.32
2022-08-05T15:01:16.152Z,0.52
2022-08-05T15:03:43.801Z,0.30
2022-08-05T15:06:14.803Z,0.50
2022-08-05T15:09:01.576Z,0.73
2022-08-05T15:11:50.948Z,0.82
2022-08-05T15:14:33.605Z,0.52
2022-08-05T15:17:01.646Z,0.80
2022-08-05T15:19:30.242Z,0.80
2022-08-05T15:21:58.005Z,0.40
2022-08-05T15:24:26.793Z,0.60
2022-08-05T15:26:53.093Z,0.50
2022-08-05T15:29:22.198Z,0.30
2022-08-05T15:31:52.949Z,1.05
2022-08-05T15:34:33.249Z,0.60
2022-08-05T15:37:06.096Z,0.40
2022-08-05T15:40:59.222Z,0.55
2022-08-05T15:42:49.890Z,1.52
2022-08-05T15:45:06.387Z,0.60
2022-08-05T15:47:32.754Z,0.45
2022-08-05T15:50:02.376Z,0.88
2022-08-05T15:52:53.676Z,0.47
2022-08-05T15:55:17.535Z,0.55
2022-08-05T15:57:45.893Z,0.47
2022-08-05T16:00:30.564Z,0.73
2022-08-05T16:03:04.672Z,0.10
2022-08-05T16:05:31.672Z,1.52
2022-08-05T16:07:57.969Z,0.35
2022-08-05T16:10:25.246Z,0.30
2022-08-05T16:12:51.976Z,1.17
2022-08-05T16:15:20.049Z,0.50
2022-08-05T16:17:57.493Z,0.65
2022-08-05T16:20:24.740Z,0.80
2022-08-05T16:22:51.034Z,0.55
2022-08-05T16:25:17.350Z,0.45
2022-08-05T16:28:00.690Z,0.30
2022-08-05T16:30:31.874Z,0.20
2022-08-05T16:32:58.896Z,0.52
2022-08-05T16:35:28.370Z,0.30
2022-08-05T16:38:15.643Z,0.43
2022-08-05T16:40:52.316Z,0.20
2022-08-05T16:43:25.070Z,0.63
2022-08-05T16:46:07.098Z,0.10
2022-08-05T16:48:38.803Z,0.00
2022-08-05T16:51:09.023Z,0.05
2022-08-05T16:54:04.049Z,0.30
2022-08-05T16:56:23.560Z,0.00
2022-08-05T16:58:49.985Z,0.20
2022-08-05T17:01:16.649Z,0.45
2022-08-05T17:03:45.354Z,0.10
2022-08-05T17:06:11.653Z,0.00
2022-08-05T17:08:53.611Z,0.20
2022-08-05T17:11:20.849Z,0.25
2022-08-05T17:14:05.828Z,0.30
2022-08-05T17:16:35.992Z,0.03
2022-08-05T17:19:03.574Z,0.32
2022-08-05T17:21:36.157Z,0.30
2022-08-05T17:24:08.069Z,0.30
2022-08-05T17:26:46.903Z,0.10
2022-08-05T17:29:14.197Z,0.20
2022-08-05T17:31:56.645Z,0.25
2022-08-05T17:34:29.765Z,0.13
2022-08-05T17:36:59.355Z,0.10
2022-08-05T17:39:33.385Z,0.20
2022-08-05T17:42:18.236Z,0.88
2022-08-05T17:44:50.507Z,0.30
2022-08-05T17:47:21.761Z,0.15
2022-08-05T17:49:59.922Z,0.35
2022-08-05T17:52:31.204Z,0.28
2022-08-05T17:55:07.998Z,0.20
2022-08-05T17:57:34.470Z,0.20
2022-08-05T18:00:05.806Z,0.15
2022-08-05T18:02:32.973Z,0.40
2022-08-05T18:05:02.791Z,0.30
2022-08-05T18:07:41.737Z,0.10
2022-08-05T18:10:10.403Z,0.10
2022-08-05T18:12:37.168Z,0.17
2022-08-05T18:15:04.003Z,0.30
2022-08-05T18:17:59.134Z,0.30
2022-08-05T18:20:19.074Z,0.47
2022-08-05T18:22:53.905Z,0.32
2022-08-05T18:25:21.214Z,0.10
2022-08-05T18:27:52.547Z,0.30
2022-08-05T18:30:19.200Z,0.85
2022-08-05T18:32:53.487Z,0.38
2022-08-05T18:35:49.645Z,0.00
2022-08-05T18:38:12.727Z,0.45
2022-08-05T18:41:56.289Z,0.40
2022-08-05T18:43:31.570Z,0.30
2022-08-05T18:46:04.625Z,0.30
2022-08-05T18:48:33.303Z,0.20
2022-08-05T18:52:02.776Z,0.30
2022-08-05T18:54:05.472Z,0.70
2022-08-05T18:56:31.812Z,0.60
2022-08-05T18:59:01.083Z,1.67
2022-08-05T19:01:33.178Z,2.20
2022-08-05T19:03:59.920Z,1.90
2022-08-05T19:06:37.110Z,0.57
2022-08-05T19:09:04.079Z,0.60
2022-08-05T19:11:37.224Z,1.15
2022-08-05T19:14:53.378Z,1.17
2022-08-05T19:17:03.193Z,0.82
2022-08-05T19:21:59.052Z,1.00
2022-08-05T19:24:34.720Z,0.60
2022-08-05T19:27:03.981Z,0.70
2022-08-05T19:29:36.080Z,0.70
2022-08-05T19:32:03.514Z,0.70
2022-08-05T19:34:30.959Z,1.33
2022-08-05T19:36:57.793Z,0.85
2022-08-05T19:39:24.132Z,0.82
2022-08-05T19:42:05.984Z,1.00
2022-08-05T19:47:11.247Z,0.95
2022-08-05T19:49:41.697Z,0.90
2022-08-05T19:52:30.744Z,1.15
2022-08-05T19:54:54.730Z,0.88
2022-08-05T19:57:47.603Z,0.80
2022-08-05T20:00:07.902Z,1.00
2022-08-05T20:02:35.891Z,1.40
2022-08-05T20:05:02.478Z,1.25
2022-08-05T20:07:38.981Z,0.87
2022-08-05T20:10:15.127Z,1.15
2022-08-05T20:12:46.172Z,1.00
2022-08-05T20:15:15.909Z,1.00
2022-08-05T20:18:10.491Z,0.98
2022-08-05T20:20:51.520Z,1.42
2022-08-05T20:23:21.882Z,0.50
2022-08-05T20:25:48.196Z,0.57
2022-08-05T20:28:15.518Z,0.90
2022-08-05T20:30:41.988Z,0.82
2022-08-05T20:33:08.701Z,1.88
2022-08-05T20:35:40.450Z,1.20
2022-08-05T20:38:11.801Z,1.73
2022-08-05T20:40:47.556Z,0.93
2022-08-05T20:43:17.046Z,0.82
2022-08-05T20:46:00.304Z,0.75
2022-08-05T20:48:27.124Z,0.73
2022-08-05T20:50:53.448Z,0.88
2022-08-05T20:53:36.951Z,0.47
2022-08-05T20:56:09.160Z,0.55
2022-08-05T20:58:35.778Z,0.50
2022-08-05T21:01:04.175Z,0.60
2022-08-05T21:03:34.477Z,0.20
2022-08-05T21:06:01.613Z,0.38
2022-08-05T21:08:41.263Z,0.43
2022-08-05T21:11:11.679Z,0.30
2022-08-05T21:13:48.119Z,0.40
2022-08-05T21:16:29.978Z,0.28
2022-08-05T21:19:00.062Z,0.43
2022-08-05T21:21:27.464Z,0.10
2022-08-05T21:24:12.902Z,0.10
2022-08-05T21:26:39.875Z,0.20
2022-08-05T21:29:08.073Z,0.80
2022-08-05T21:31:41.106Z,0.30
2022-08-05T21:34:08.282Z,0.20
2022-08-05T21:36:36.871Z,0.25
2022-08-05T21:39:04.910Z,0.73
2022-08-05T21:41:34.188Z,0.10
2022-08-05T21:44:04.892Z,0.20
2022-08-05T21:46:40.686Z,0.20
2022-08-05T21:49:59.501Z,0.65
2022-08-05T21:52:22.650Z,0.60
2022-08-05T21:54:54.884Z,0.20
2022-08-05T21:57:31.246Z,0.00
2022-08-05T22:00:10.669Z,0.10
2022-08-05T22:02:38.049Z,0.47
2022-08-05T22:05:04.781Z,0.10
2022-08-05T22:07:40.125Z,0.30
2022-08-05T22:10:18.135Z,0.22
2022-08-05T22:12:53.159Z,0.82
2022-08-05T22:15:56.521Z,0.10
2022-08-05T22:18:06.314Z,0.17
2022-08-05T22:20:35.678Z,0.13
2022-08-05T22:23:24.419Z,0.17
2022-08-05T22:26:11.634Z,0.30
2022-08-05T22:28:41.285Z,0.32
2022-08-05T22:31:07.584Z,0.52
2022-08-05T22:33:56.753Z,0.10
2022-08-05T22:36:24.048Z,0.20
2022-08-05T22:38:50.859Z,0.47
2022-08-05T22:41:26.262Z,0.30
2022-08-05T22:44:06.818Z,0.95
2022-08-05T22:46:33.315Z,0.32
2022-08-05T22:48:59.607Z,0.85
2022-08-05T22:52:02.962Z,0.30
2022-08-05T22:54:12.789Z,0.35
2022-08-05T22:56:40.666Z,0.30
2022-08-05T22:59:43.940Z,0.40
2022-08-05T23:02:06.008Z,1.50
2022-08-05T23:04:33.462Z,0.57
2022-08-05T23:06:59.786Z,0.43
2022-08-05T23:09:52.641Z,0.13
2022-08-05T23:12:12.368Z,0.60
2022-08-05T23:14:38.677Z,0.30
2022-08-05T23:17:34.437Z,0.30
2022-08-05T23:20:04.835Z,0.63
2022-08-05T23:22:31.821Z,0.50
2022-08-05T23:24:59.744Z,0.25
2022-08-05T23:27:28.985Z,0.30
2022-08-05T23:30:10.653Z,0.77
2022-08-05T23:32:37.880Z,0.24
2022-08-05T23:35:11.546Z,0.47
2022-08-05T23:37:37.991Z,0.52
2022-08-05T23:40:09.362Z,0.40
2022-08-05T23:42:37.268Z,1.67
2022-08-05T23:45:13.848Z,0.50
2022-08-05T23:47:47.776Z,1.10
2022-08-05T23:50:14.660Z,0.38
2022-08-05T23:52:50.022Z,0.50
2022-08-05T23:55:17.845Z,0.47
2022-08-05T23:57:44.145Z,1.38
